Thorney Island, United Kingdom
Current Conditions -  °F | °C
As of 6:50 AM on Thursday 27 Nov 2014 (Local Time) from EGHI Reporting Station
Haze Haze  
Wind Chill: 45°   Ceiling: 500
Heat Index: 45°   Visibility: 3mi
Dew Point: 43°   Wind: 1mph
Humidity: 93%   Direction: NA
Pressure: 29.62"   Gusts: NA
Location:  50.82°N, 0.92°W
Report Text: EGHI 270650Z VRB01KT 5000 BR SCT003 BKN005 07/06 Q1003
Loading
Personal Weather Stations






























Interactive Weather Map New forecast layout! Learn more

10-Day Weather Forecast

Advertisements
Track Severe Weather on mobile